sensor_id;sensor_type;location;lat;lon;timestamp;P1;durP1;ratioP1;P2;durP2;ratioP2
60935;SDS011;46804;51.786;19.520;2023-06-24T00:02:00;9.98;;;4.45;;
60935;SDS011;46804;51.786;19.520;2023-06-24T00:06:02;6.90;;;4.63;;
60935;SDS011;46804;51.786;19.520;2023-06-24T00:10:03;8.45;;;5.22;;
60935;SDS011;46804;51.786;19.520;2023-06-24T00:14:04;7.35;;;4.40;;
60935;SDS011;46804;51.786;19.520;2023-06-24T00:18:07;9.90;;;4.67;;
60935;SDS011;46804;51.786;19.520;2023-06-24T00:22:08;7.35;;;4.22;;
60935;SDS011;46804;51.786;19.520;2023-06-24T00:26:09;8.70;;;4.63;;
60935;SDS011;46804;51.786;19.520;2023-06-24T00:30:09;9.00;;;4.60;;
60935;SDS011;46804;51.786;19.520;2023-06-24T00:34:10;5.93;;;4.05;;
60935;SDS011;46804;51.786;19.520;2023-06-24T00:38:11;7.28;;;4.50;;
60935;SDS011;46804;51.786;19.520;2023-06-24T00:42:12;7.47;;;3.92;;
60935;SDS011;46804;51.786;19.520;2023-06-24T00:46:12;8.07;;;4.63;;
60935;SDS011;46804;51.786;19.520;2023-06-24T00:50:14;9.20;;;4.25;;
60935;SDS011;46804;51.786;19.520;2023-06-24T00:54:16;6.70;;;4.43;;
60935;SDS011;46804;51.786;19.520;2023-06-24T00:58:17;7.25;;;4.10;;
60935;SDS011;46804;51.786;19.520;2023-06-24T01:02:20;7.95;;;4.10;;
60935;SDS011;46804;51.786;19.520;2023-06-24T01:06:22;9.70;;;4.80;;
60935;SDS011;46804;51.786;19.520;2023-06-24T01:10:23;6.07;;;3.97;;
60935;SDS011;46804;51.786;19.520;2023-06-24T01:14:25;9.48;;;3.95;;
60935;SDS011;46804;51.786;19.520;2023-06-24T01:35:49;7.80;;;4.25;;
60935;SDS011;46804;51.786;19.520;2023-06-24T01:39:52;7.18;;;4.18;;
60935;SDS011;46804;51.786;19.520;2023-06-24T01:44:00;6.47;;;3.80;;
60935;SDS011;46804;51.786;19.520;2023-06-24T01:48:06;6.28;;;4.32;;
60935;SDS011;46804;51.786;19.520;2023-06-24T01:52:09;7.10;;;4.35;;
60935;SDS011;46804;51.786;19.520;2023-06-24T01:56:11;6.47;;;4.38;;
60935;SDS011;46804;51.786;19.520;2023-06-24T02:00:14;10.35;;;4.05;;
60935;SDS011;46804;51.786;19.520;2023-06-24T02:04:17;6.97;;;4.47;;
60935;SDS011;46804;51.786;19.520;2023-06-24T02:08:20;7.35;;;4.75;;
60935;SDS011;46804;51.786;19.520;2023-06-24T02:12:23;10.47;;;4.27;;
60935;SDS011;46804;51.786;19.520;2023-06-24T02:16:26;7.32;;;4.30;;
60935;SDS011;46804;51.786;19.520;2023-06-24T02:20:28;7.68;;;4.30;;
60935;SDS011;46804;51.786;19.520;2023-06-24T02:24:31;7.95;;;4.63;;
60935;SDS011;46804;51.786;19.520;2023-06-24T02:28:32;5.90;;;4.03;;
60935;SDS011;46804;51.786;19.520;2023-06-24T02:32:34;9.10;;;3.97;;
60935;SDS011;46804;51.786;19.520;2023-06-24T02:36:38;7.85;;;4.53;;
60935;SDS011;46804;51.786;19.520;2023-06-24T02:40:39;6.53;;;4.75;;
60935;SDS011;46804;51.786;19.520;2023-06-24T02:44:40;10.38;;;4.93;;
60935;SDS011;46804;51.786;19.520;2023-06-24T02:48:42;7.55;;;5.32;;
60935;SDS011;46804;51.786;19.520;2023-06-24T02:52:44;8.35;;;5.20;;
60935;SDS011;46804;51.786;19.520;2023-06-24T02:56:45;8.98;;;5.60;;
60935;SDS011;46804;51.786;19.520;2023-06-24T03:00:49;9.40;;;4.63;;
60935;SDS011;46804;51.786;19.520;2023-06-24T03:04:50;9.68;;;5.70;;
60935;SDS011;46804;51.786;19.520;2023-06-24T03:08:52;9.45;;;6.28;;
60935;SDS011;46804;51.786;19.520;2023-06-24T03:12:53;11.70;;;6.25;;
60935;SDS011;46804;51.786;19.520;2023-06-24T03:16:54;11.20;;;6.00;;
60935;SDS011;46804;51.786;19.520;2023-06-24T03:20:55;9.55;;;6.20;;
60935;SDS011;46804;51.786;19.520;2023-06-24T03:24:56;10.25;;;6.70;;
60935;SDS011;46804;51.786;19.520;2023-06-24T03:28:57;10.32;;;6.85;;
60935;SDS011;46804;51.786;19.520;2023-06-24T03:32:58;9.40;;;6.50;;
60935;SDS011;46804;51.786;19.520;2023-06-24T03:36:59;13.02;;;7.00;;
60935;SDS011;46804;51.786;19.520;2023-06-24T03:40:59;13.38;;;6.25;;
60935;SDS011;46804;51.786;19.520;2023-06-24T03:45:01;9.20;;;6.40;;
60935;SDS011;46804;51.786;19.520;2023-06-24T03:49:05;11.73;;;7.38;;
60935;SDS011;46804;51.786;19.520;2023-06-24T03:53:08;12.13;;;6.97;;
60935;SDS011;46804;51.786;19.520;2023-06-24T03:57:08;10.60;;;7.35;;
60935;SDS011;46804;51.786;19.520;2023-06-24T04:01:09;13.60;;;8.10;;
60935;SDS011;46804;51.786;19.520;2023-06-24T04:05:10;10.43;;;7.05;;
60935;SDS011;46804;51.786;19.520;2023-06-24T04:09:11;9.70;;;7.57;;
60935;SDS011;46804;51.786;19.520;2023-06-24T04:13:12;14.30;;;8.75;;
60935;SDS011;46804;51.786;19.520;2023-06-24T04:17:13;11.32;;;7.80;;
60935;SDS011;46804;51.786;19.520;2023-06-24T04:21:13;11.65;;;7.97;;
60935;SDS011;46804;51.786;19.520;2023-06-24T04:25:15;13.90;;;9.13;;
60935;SDS011;46804;51.786;19.520;2023-06-24T04:29:16;13.10;;;8.38;;
60935;SDS011;46804;51.786;19.520;2023-06-24T04:33:16;14.70;;;9.18;;
60935;SDS011;46804;51.786;19.520;2023-06-24T04:37:17;11.30;;;8.57;;
60935;SDS011;46804;51.786;19.520;2023-06-24T04:41:18;12.10;;;9.10;;
60935;SDS011;46804;51.786;19.520;2023-06-24T04:45:19;12.82;;;8.65;;
60935;SDS011;46804;51.786;19.520;2023-06-24T04:49:21;12.80;;;8.55;;
60935;SDS011;46804;51.786;19.520;2023-06-24T04:53:22;15.45;;;8.18;;
60935;SDS011;46804;51.786;19.520;2023-06-24T04:57:26;17.60;;;8.98;;
60935;SDS011;46804;51.786;19.520;2023-06-24T05:01:31;16.00;;;9.40;;
60935;SDS011;46804;51.786;19.520;2023-06-24T05:05:31;13.02;;;8.50;;
60935;SDS011;46804;51.786;19.520;2023-06-24T05:09:32;13.27;;;9.05;;
60935;SDS011;46804;51.786;19.520;2023-06-24T05:13:33;10.30;;;7.63;;
60935;SDS011;46804;51.786;19.520;2023-06-24T05:17:33;15.05;;;9.57;;
60935;SDS011;46804;51.786;19.520;2023-06-24T05:21:34;12.80;;;8.35;;
60935;SDS011;46804;51.786;19.520;2023-06-24T05:25:35;15.35;;;8.82;;
60935;SDS011;46804;51.786;19.520;2023-06-24T05:29:36;13.10;;;8.90;;
60935;SDS011;46804;51.786;19.520;2023-06-24T05:33:37;12.35;;;8.77;;
60935;SDS011;46804;51.786;19.520;2023-06-24T05:37:38;12.18;;;9.13;;
60935;SDS011;46804;51.786;19.520;2023-06-24T05:41:39;14.60;;;10.23;;
60935;SDS011;46804;51.786;19.520;2023-06-24T05:45:39;15.75;;;9.68;;
60935;SDS011;46804;51.786;19.520;2023-06-24T05:49:40;17.05;;;11.02;;
60935;SDS011;46804;51.786;19.520;2023-06-24T05:53:41;16.20;;;10.07;;
60935;SDS011;46804;51.786;19.520;2023-06-24T05:57:41;15.90;;;10.52;;
60935;SDS011;46804;51.786;19.520;2023-06-24T06:01:44;15.63;;;11.65;;
60935;SDS011;46804;51.786;19.520;2023-06-24T06:05:45;17.67;;;11.15;;
60935;SDS011;46804;51.786;19.520;2023-06-24T06:09:46;18.30;;;12.57;;
60935;SDS011;46804;51.786;19.520;2023-06-24T06:13:47;15.50;;;11.70;;
60935;SDS011;46804;51.786;19.520;2023-06-24T06:17:47;17.77;;;11.43;;
60935;SDS011;46804;51.786;19.520;2023-06-24T06:21:51;18.70;;;12.30;;
60935;SDS011;46804;51.786;19.520;2023-06-24T06:25:52;14.52;;;10.95;;
60935;SDS011;46804;51.786;19.520;2023-06-24T06:29:52;17.52;;;11.13;;
60935;SDS011;46804;51.786;19.520;2023-06-24T06:33:53;30.38;;;12.63;;
60935;SDS011;46804;51.786;19.520;2023-06-24T06:37:54;16.52;;;11.07;;
60935;SDS011;46804;51.786;19.520;2023-06-24T06:41:54;15.98;;;11.07;;
60935;SDS011;46804;51.786;19.520;2023-06-24T06:45:55;18.10;;;10.57;;
60935;SDS011;46804;51.786;19.520;2023-06-24T06:49:56;17.13;;;10.95;;
60935;SDS011;46804;51.786;19.520;2023-06-24T06:53:56;16.87;;;11.33;;
60935;SDS011;46804;51.786;19.520;2023-06-24T06:57:57;15.10;;;11.00;;
60935;SDS011;46804;51.786;19.520;2023-06-24T07:01:58;15.88;;;10.60;;
60935;SDS011;46804;51.786;19.520;2023-06-24T07:05:59;16.20;;;9.68;;
60935;SDS011;46804;51.786;19.520;2023-06-24T07:10:00;14.40;;;10.13;;
60935;SDS011;46804;51.786;19.520;2023-06-24T07:14:01;13.98;;;10.20;;
60935;SDS011;46804;51.786;19.520;2023-06-24T07:18:01;15.15;;;12.02;;
60935;SDS011;46804;51.786;19.520;2023-06-24T07:22:02;14.98;;;10.60;;
60935;SDS011;46804;51.786;19.520;2023-06-24T07:26:03;14.82;;;10.57;;
60935;SDS011;46804;51.786;19.520;2023-06-24T07:30:04;25.30;;;9.98;;
60935;SDS011;46804;51.786;19.520;2023-06-24T07:34:06;17.88;;;11.13;;
60935;SDS011;46804;51.786;19.520;2023-06-24T07:38:06;18.10;;;10.80;;
60935;SDS011;46804;51.786;19.520;2023-06-24T07:42:07;19.08;;;11.30;;
60935;SDS011;46804;51.786;19.520;2023-06-24T07:46:08;12.43;;;9.05;;
60935;SDS011;46804;51.786;19.520;2023-06-24T07:50:09;14.68;;;10.52;;
60935;SDS011;46804;51.786;19.520;2023-06-24T07:54:11;15.45;;;9.55;;
60935;SDS011;46804;51.786;19.520;2023-06-24T07:58:12;17.85;;;11.02;;
60935;SDS011;46804;51.786;19.520;2023-06-24T08:02:12;15.27;;;10.65;;
60935;SDS011;46804;51.786;19.520;2023-06-24T08:06:13;23.95;;;12.18;;
60935;SDS011;46804;51.786;19.520;2023-06-24T08:10:14;18.67;;;11.88;;
60935;SDS011;46804;51.786;19.520;2023-06-24T08:14:15;27.88;;;13.18;;
60935;SDS011;46804;51.786;19.520;2023-06-24T08:18:15;18.58;;;13.25;;
60935;SDS011;46804;51.786;19.520;2023-06-24T08:22:16;19.48;;;13.15;;
60935;SDS011;46804;51.786;19.520;2023-06-24T08:26:17;19.02;;;13.57;;
60935;SDS011;46804;51.786;19.520;2023-06-24T08:30:18;15.80;;;12.20;;
60935;SDS011;46804;51.786;19.520;2023-06-24T08:34:18;17.95;;;11.88;;
60935;SDS011;46804;51.786;19.520;2023-06-24T08:38:19;14.15;;;10.65;;
60935;SDS011;46804;51.786;19.520;2023-06-24T08:42:20;15.27;;;10.10;;
60935;SDS011;46804;51.786;19.520;2023-06-24T08:46:21;15.07;;;9.77;;
60935;SDS011;46804;51.786;19.520;2023-06-24T08:50:24;13.50;;;9.95;;
60935;SDS011;46804;51.786;19.520;2023-06-24T08:54:31;14.07;;;9.65;;
60935;SDS011;46804;51.786;19.520;2023-06-24T08:58:35;14.93;;;9.68;;
60935;SDS011;46804;51.786;19.520;2023-06-24T09:02:36;14.60;;;9.50;;
60935;SDS011;46804;51.786;19.520;2023-06-24T09:06:38;17.08;;;9.15;;
60935;SDS011;46804;51.786;19.520;2023-06-24T09:10:39;12.77;;;9.43;;
60935;SDS011;46804;51.786;19.520;2023-06-24T09:14:40;14.00;;;9.02;;
60935;SDS011;46804;51.786;19.520;2023-06-24T09:18:41;12.55;;;8.35;;
60935;SDS011;46804;51.786;19.520;2023-06-24T09:22:42;10.48;;;8.00;;
60935;SDS011;46804;51.786;19.520;2023-06-24T09:26:43;15.02;;;8.10;;
60935;SDS011;46804;51.786;19.520;2023-06-24T09:30:47;14.30;;;8.63;;
60935;SDS011;46804;51.786;19.520;2023-06-24T09:34:47;14.18;;;8.32;;
60935;SDS011;46804;51.786;19.520;2023-06-24T09:38:48;11.10;;;7.32;;
60935;SDS011;46804;51.786;19.520;2023-06-24T09:42:50;12.90;;;7.53;;
60935;SDS011;46804;51.786;19.520;2023-06-24T09:46:58;12.85;;;7.88;;
60935;SDS011;46804;51.786;19.520;2023-06-24T09:51:00;12.35;;;7.72;;
60935;SDS011;46804;51.786;19.520;2023-06-24T09:55:02;12.95;;;7.53;;
60935;SDS011;46804;51.786;19.520;2023-06-24T09:59:04;9.68;;;6.65;;
60935;SDS011;46804;51.786;19.520;2023-06-24T10:03:06;11.75;;;6.97;;
60935;SDS011;46804;51.786;19.520;2023-06-24T10:07:07;12.15;;;6.78;;
60935;SDS011;46804;51.786;19.520;2023-06-24T10:11:08;9.57;;;6.13;;
60935;SDS011;46804;51.786;19.520;2023-06-24T10:15:10;13.13;;;6.75;;
60935;SDS011;46804;51.786;19.520;2023-06-24T10:19:13;8.00;;;6.25;;
60935;SDS011;46804;51.786;19.520;2023-06-24T10:23:20;13.65;;;6.20;;
60935;SDS011;46804;51.786;19.520;2023-06-24T10:27:21;14.65;;;7.25;;
60935;SDS011;46804;51.786;19.520;2023-06-24T10:31:48;8.27;;;5.90;;
60935;SDS011;46804;51.786;19.520;2023-06-24T10:35:48;8.32;;;5.38;;
60935;SDS011;46804;51.786;19.520;2023-06-24T10:43:49;7.50;;;4.60;;
60935;SDS011;46804;51.786;19.520;2023-06-24T10:47:50;9.23;;;4.75;;
60935;SDS011;46804;51.786;19.520;2023-06-24T10:51:56;7.00;;;4.35;;
60935;SDS011;46804;51.786;19.520;2023-06-24T10:55:57;5.53;;;4.32;;
60935;SDS011;46804;51.786;19.520;2023-06-24T10:59:59;8.25;;;4.72;;
60935;SDS011;46804;51.786;19.520;2023-06-24T11:04:05;12.40;;;4.27;;
60935;SDS011;46804;51.786;19.520;2023-06-24T11:08:06;10.65;;;4.55;;
60935;SDS011;46804;51.786;19.520;2023-06-24T11:12:08;9.27;;;4.68;;
60935;SDS011;46804;51.786;19.520;2023-06-24T11:16:10;7.00;;;4.03;;
60935;SDS011;46804;51.786;19.520;2023-06-24T11:20:11;7.80;;;3.97;;
60935;SDS011;46804;51.786;19.520;2023-06-24T11:24:13;5.70;;;4.07;;
60935;SDS011;46804;51.786;19.520;2023-06-24T11:28:18;5.45;;;3.78;;
60935;SDS011;46804;51.786;19.520;2023-06-24T11:32:19;8.18;;;3.67;;
60935;SDS011;46804;51.786;19.520;2023-06-24T11:36:20;8.07;;;3.63;;
60935;SDS011;46804;51.786;19.520;2023-06-24T11:40:21;5.43;;;3.70;;
60935;SDS011;46804;51.786;19.520;2023-06-24T11:44:23;7.60;;;4.30;;
60935;SDS011;46804;51.786;19.520;2023-06-24T11:48:28;8.80;;;4.32;;
60935;SDS011;46804;51.786;19.520;2023-06-24T11:56:36;8.40;;;5.00;;
60935;SDS011;46804;51.786;19.520;2023-06-24T12:00:40;8.57;;;5.18;;
60935;SDS011;46804;51.786;19.520;2023-06-24T12:04:43;8.77;;;5.57;;
60935;SDS011;46804;51.786;19.520;2023-06-24T12:08:44;8.25;;;6.07;;
60935;SDS011;46804;51.786;19.520;2023-06-24T12:12:45;9.73;;;6.47;;
60935;SDS011;46804;51.786;19.520;2023-06-24T12:16:47;13.93;;;6.35;;
60935;SDS011;46804;51.786;19.520;2023-06-24T12:20:48;9.95;;;6.32;;
60935;SDS011;46804;51.786;19.520;2023-06-24T12:24:48;9.27;;;6.57;;
60935;SDS011;46804;51.786;19.520;2023-06-24T12:28:49;11.13;;;7.60;;
60935;SDS011;46804;51.786;19.520;2023-06-24T12:32:50;16.08;;;8.07;;
60935;SDS011;46804;51.786;19.520;2023-06-24T12:36:51;10.40;;;7.32;;
60935;SDS011;46804;51.786;19.520;2023-06-24T12:40:52;10.95;;;7.15;;
60935;SDS011;46804;51.786;19.520;2023-06-24T12:44:53;12.35;;;7.60;;
60935;SDS011;46804;51.786;19.520;2023-06-24T12:48:53;12.30;;;8.05;;
60935;SDS011;46804;51.786;19.520;2023-06-24T12:52:54;10.82;;;7.30;;
60935;SDS011;46804;51.786;19.520;2023-06-24T12:56:55;10.65;;;7.45;;
60935;SDS011;46804;51.786;19.520;2023-06-24T13:00:55;12.20;;;7.25;;
60935;SDS011;46804;51.786;19.520;2023-06-24T13:04:56;10.55;;;7.75;;
60935;SDS011;46804;51.786;19.520;2023-06-24T13:08:57;12.30;;;7.53;;
60935;SDS011;46804;51.786;19.520;2023-06-24T13:12:58;10.88;;;7.93;;
60935;SDS011;46804;51.786;19.520;2023-06-24T13:16:59;10.73;;;7.63;;
60935;SDS011;46804;51.786;19.520;2023-06-24T13:20:59;13.68;;;8.90;;
60935;SDS011;46804;51.786;19.520;2023-06-24T13:25:00;11.98;;;8.38;;
60935;SDS011;46804;51.786;19.520;2023-06-24T13:29:01;12.13;;;8.05;;
60935;SDS011;46804;51.786;19.520;2023-06-24T13:33:03;13.50;;;9.10;;
60935;SDS011;46804;51.786;19.520;2023-06-24T13:37:03;15.60;;;8.00;;
60935;SDS011;46804;51.786;19.520;2023-06-24T13:41:04;13.30;;;7.97;;
60935;SDS011;46804;51.786;19.520;2023-06-24T13:45:05;11.52;;;7.00;;
60935;SDS011;46804;51.786;19.520;2023-06-24T13:49:06;14.38;;;8.10;;
60935;SDS011;46804;51.786;19.520;2023-06-24T13:53:07;20.73;;;10.85;;
60935;SDS011;46804;51.786;19.520;2023-06-24T13:57:08;10.98;;;7.38;;
60935;SDS011;46804;51.786;19.520;2023-06-24T14:01:08;13.15;;;8.35;;
60935;SDS011;46804;51.786;19.520;2023-06-24T14:05:09;24.25;;;18.73;;
60935;SDS011;46804;51.786;19.520;2023-06-24T14:09:10;16.90;;;9.20;;
60935;SDS011;46804;51.786;19.520;2023-06-24T14:13:11;15.75;;;9.35;;
60935;SDS011;46804;51.786;19.520;2023-06-24T14:17:11;12.27;;;7.97;;
60935;SDS011;46804;51.786;19.520;2023-06-24T14:21:12;13.55;;;8.00;;
60935;SDS011;46804;51.786;19.520;2023-06-24T14:25:13;15.00;;;8.27;;
60935;SDS011;46804;51.786;19.520;2023-06-24T14:29:14;13.93;;;8.23;;
60935;SDS011;46804;51.786;19.520;2023-06-24T14:33:16;15.85;;;9.10;;
60935;SDS011;46804;51.786;19.520;2023-06-24T14:37:16;13.13;;;8.30;;
60935;SDS011;46804;51.786;19.520;2023-06-24T14:41:17;13.40;;;8.20;;
60935;SDS011;46804;51.786;19.520;2023-06-24T14:45:18;11.98;;;7.18;;
60935;SDS011;46804;51.786;19.520;2023-06-24T14:49:19;14.38;;;8.70;;
60935;SDS011;46804;51.786;19.520;2023-06-24T14:53:19;11.20;;;7.75;;
60935;SDS011;46804;51.786;19.520;2023-06-24T14:57:20;13.63;;;7.18;;
60935;SDS011;46804;51.786;19.520;2023-06-24T15:05:24;10.75;;;6.57;;
60935;SDS011;46804;51.786;19.520;2023-06-24T15:09:25;11.25;;;7.03;;
60935;SDS011;46804;51.786;19.520;2023-06-24T15:13:25;12.57;;;7.50;;
60935;SDS011;46804;51.786;19.520;2023-06-24T15:17:26;11.65;;;7.40;;
60935;SDS011;46804;51.786;19.520;2023-06-24T15:21:27;10.50;;;7.30;;
60935;SDS011;46804;51.786;19.520;2023-06-24T15:25:28;9.68;;;7.22;;
60935;SDS011;46804;51.786;19.520;2023-06-24T15:29:29;10.00;;;7.22;;
60935;SDS011;46804;51.786;19.520;2023-06-24T15:33:30;11.25;;;6.70;;
60935;SDS011;46804;51.786;19.520;2023-06-24T15:37:31;10.65;;;7.07;;
60935;SDS011;46804;51.786;19.520;2023-06-24T15:41:31;12.93;;;6.85;;
60935;SDS011;46804;51.786;19.520;2023-06-24T15:45:32;11.98;;;6.55;;
60935;SDS011;46804;51.786;19.520;2023-06-24T15:49:33;9.95;;;7.15;;
60935;SDS011;46804;51.786;19.520;2023-06-24T15:53:34;11.77;;;7.10;;
60935;SDS011;46804;51.786;19.520;2023-06-24T15:57:34;10.90;;;7.22;;
60935;SDS011;46804;51.786;19.520;2023-06-24T16:01:35;9.10;;;6.68;;
60935;SDS011;46804;51.786;19.520;2023-06-24T16:05:36;9.23;;;7.20;;
60935;SDS011;46804;51.786;19.520;2023-06-24T16:09:37;11.40;;;6.47;;
60935;SDS011;46804;51.786;19.520;2023-06-24T16:13:38;10.50;;;6.50;;
60935;SDS011;46804;51.786;19.520;2023-06-24T16:17:39;10.48;;;6.63;;
60935;SDS011;46804;51.786;19.520;2023-06-24T16:21:39;9.82;;;7.30;;
60935;SDS011;46804;51.786;19.520;2023-06-24T16:25:40;10.63;;;6.35;;
60935;SDS011;46804;51.786;19.520;2023-06-24T16:29:41;13.45;;;6.88;;
60935;SDS011;46804;51.786;19.520;2023-06-24T16:33:42;10.75;;;6.55;;
60935;SDS011;46804;51.786;19.520;2023-06-24T16:37:43;10.25;;;6.85;;
60935;SDS011;46804;51.786;19.520;2023-06-24T16:41:43;12.80;;;6.43;;
60935;SDS011;46804;51.786;19.520;2023-06-24T16:45:44;8.73;;;6.32;;
60935;SDS011;46804;51.786;19.520;2023-06-24T16:49:45;12.05;;;6.55;;
60935;SDS011;46804;51.786;19.520;2023-06-24T16:53:48;11.98;;;5.90;;
60935;SDS011;46804;51.786;19.520;2023-06-24T16:57:49;9.35;;;6.70;;
60935;SDS011;46804;51.786;19.520;2023-06-24T17:01:50;10.85;;;5.95;;
60935;SDS011;46804;51.786;19.520;2023-06-24T17:05:50;8.77;;;5.60;;
60935;SDS011;46804;51.786;19.520;2023-06-24T17:09:51;14.65;;;7.00;;
60935;SDS011;46804;51.786;19.520;2023-06-24T17:13:52;8.70;;;6.25;;
60935;SDS011;46804;51.786;19.520;2023-06-24T17:17:53;8.60;;;5.75;;
60935;SDS011;46804;51.786;19.520;2023-06-24T17:21:53;10.55;;;7.05;;
60935;SDS011;46804;51.786;19.520;2023-06-24T17:25:54;12.07;;;7.05;;
60935;SDS011;46804;51.786;19.520;2023-06-24T17:29:55;12.68;;;7.38;;
60935;SDS011;46804;51.786;19.520;2023-06-24T17:33:56;12.27;;;7.47;;
60935;SDS011;46804;51.786;19.520;2023-06-24T17:37:57;12.65;;;7.15;;
60935;SDS011;46804;51.786;19.520;2023-06-24T17:41:58;11.73;;;6.63;;
60935;SDS011;46804;51.786;19.520;2023-06-24T17:45:58;10.48;;;7.65;;
60935;SDS011;46804;51.786;19.520;2023-06-24T17:49:59;10.93;;;7.30;;
60935;SDS011;46804;51.786;19.520;2023-06-24T17:54:00;9.45;;;6.97;;
60935;SDS011;46804;51.786;19.520;2023-06-24T17:58:04;14.68;;;6.85;;
60935;SDS011;46804;51.786;19.520;2023-06-24T18:02:04;9.70;;;6.65;;
60935;SDS011;46804;51.786;19.520;2023-06-24T18:06:05;11.85;;;7.50;;
60935;SDS011;46804;51.786;19.520;2023-06-24T18:10:06;14.98;;;8.10;;
60935;SDS011;46804;51.786;19.520;2023-06-24T18:14:07;10.52;;;7.95;;
60935;SDS011;46804;51.786;19.520;2023-06-24T18:18:07;11.13;;;7.25;;
60935;SDS011;46804;51.786;19.520;2023-06-24T18:22:08;11.40;;;7.38;;
60935;SDS011;46804;51.786;19.520;2023-06-24T18:26:09;14.48;;;7.53;;
60935;SDS011;46804;51.786;19.520;2023-06-24T18:30:10;12.70;;;7.70;;
60935;SDS011;46804;51.786;19.520;2023-06-24T18:34:10;14.43;;;9.02;;
60935;SDS011;46804;51.786;19.520;2023-06-24T18:38:11;12.75;;;8.50;;
60935;SDS011;46804;51.786;19.520;2023-06-24T18:42:12;14.63;;;8.75;;
60935;SDS011;46804;51.786;19.520;2023-06-24T18:46:13;12.68;;;7.95;;
60935;SDS011;46804;51.786;19.520;2023-06-24T18:50:13;15.52;;;8.20;;
60935;SDS011;46804;51.786;19.520;2023-06-24T18:54:14;15.13;;;8.82;;
60935;SDS011;46804;51.786;19.520;2023-06-24T18:58:17;15.83;;;9.10;;
60935;SDS011;46804;51.786;19.520;2023-06-24T19:02:18;14.15;;;9.13;;
60935;SDS011;46804;51.786;19.520;2023-06-24T19:06:18;12.50;;;8.80;;
60935;SDS011;46804;51.786;19.520;2023-06-24T19:10:19;16.92;;;9.38;;
60935;SDS011;46804;51.786;19.520;2023-06-24T19:14:20;13.80;;;8.88;;
60935;SDS011;46804;51.786;19.520;2023-06-24T19:18:21;14.10;;;8.98;;
60935;SDS011;46804;51.786;19.520;2023-06-24T19:22:21;16.10;;;10.48;;
60935;SDS011;46804;51.786;19.520;2023-06-24T19:26:22;13.98;;;8.75;;
60935;SDS011;46804;51.786;19.520;2023-06-24T19:30:23;15.68;;;10.52;;
60935;SDS011;46804;51.786;19.520;2023-06-24T19:34:23;14.60;;;10.60;;
60935;SDS011;46804;51.786;19.520;2023-06-24T19:38:24;23.90;;;12.77;;
60935;SDS011;46804;51.786;19.520;2023-06-24T19:42:25;16.88;;;12.25;;
60935;SDS011;46804;51.786;19.520;2023-06-24T19:46:26;18.60;;;13.05;;
60935;SDS011;46804;51.786;19.520;2023-06-24T19:50:26;27.73;;;16.00;;
60935;SDS011;46804;51.786;19.520;2023-06-24T19:54:27;19.02;;;12.82;;
60935;SDS011;46804;51.786;19.520;2023-06-24T19:58:27;21.00;;;12.75;;
60935;SDS011;46804;51.786;19.520;2023-06-24T20:02:28;21.52;;;13.75;;
60935;SDS011;46804;51.786;19.520;2023-06-24T20:06:29;16.13;;;11.90;;
60935;SDS011;46804;51.786;19.520;2023-06-24T20:10:30;19.88;;;11.88;;
60935;SDS011;46804;51.786;19.520;2023-06-24T20:14:30;15.93;;;10.85;;
60935;SDS011;46804;51.786;19.520;2023-06-24T20:18:31;17.70;;;11.85;;
60935;SDS011;46804;51.786;19.520;2023-06-24T20:22:32;15.48;;;11.55;;
60935;SDS011;46804;51.786;19.520;2023-06-24T20:26:33;18.85;;;11.75;;
60935;SDS011;46804;51.786;19.520;2023-06-24T20:30:34;18.90;;;11.60;;
60935;SDS011;46804;51.786;19.520;2023-06-24T20:34:35;18.70;;;12.38;;
60935;SDS011;46804;51.786;19.520;2023-06-24T20:38:36;15.68;;;10.20;;
60935;SDS011;46804;51.786;19.520;2023-06-24T20:42:39;14.13;;;11.17;;
60935;SDS011;46804;51.786;19.520;2023-06-24T20:46:40;15.15;;;10.75;;
60935;SDS011;46804;51.786;19.520;2023-06-24T20:50:40;19.30;;;10.75;;
60935;SDS011;46804;51.786;19.520;2023-06-24T20:54:41;15.55;;;11.32;;
60935;SDS011;46804;51.786;19.520;2023-06-24T20:58:42;16.23;;;12.27;;
60935;SDS011;46804;51.786;19.520;2023-06-24T21:02:42;16.80;;;11.82;;
60935;SDS011;46804;51.786;19.520;2023-06-24T21:06:43;15.93;;;11.38;;
60935;SDS011;46804;51.786;19.520;2023-06-24T21:10:44;18.77;;;11.38;;
60935;SDS011;46804;51.786;19.520;2023-06-24T21:14:44;19.60;;;11.40;;
60935;SDS011;46804;51.786;19.520;2023-06-24T21:18:45;16.30;;;11.05;;
60935;SDS011;46804;51.786;19.520;2023-06-24T21:22:46;17.20;;;11.98;;
60935;SDS011;46804;51.786;19.520;2023-06-24T21:26:46;19.58;;;12.18;;
60935;SDS011;46804;51.786;19.520;2023-06-24T21:30:47;14.18;;;11.25;;
60935;SDS011;46804;51.786;19.520;2023-06-24T21:34:48;18.10;;;12.20;;
60935;SDS011;46804;51.786;19.520;2023-06-24T21:38:48;19.50;;;12.98;;
60935;SDS011;46804;51.786;19.520;2023-06-24T21:42:51;16.63;;;11.47;;
60935;SDS011;46804;51.786;19.520;2023-06-24T21:46:52;20.55;;;10.90;;
60935;SDS011;46804;51.786;19.520;2023-06-24T21:50:52;14.60;;;11.80;;
60935;SDS011;46804;51.786;19.520;2023-06-24T21:54:53;15.77;;;11.13;;
60935;SDS011;46804;51.786;19.520;2023-06-24T21:58:54;17.35;;;11.18;;
60935;SDS011;46804;51.786;19.520;2023-06-24T22:02:54;16.20;;;12.57;;
60935;SDS011;46804;51.786;19.520;2023-06-24T22:06:55;15.88;;;11.43;;
60935;SDS011;46804;51.786;19.520;2023-06-24T22:10:56;16.63;;;11.65;;
60935;SDS011;46804;51.786;19.520;2023-06-24T22:14:57;17.73;;;12.02;;
60935;SDS011;46804;51.786;19.520;2023-06-24T22:18:58;16.83;;;11.27;;
60935;SDS011;46804;51.786;19.520;2023-06-24T22:22:58;16.25;;;11.98;;
60935;SDS011;46804;51.786;19.520;2023-06-24T22:26:59;15.07;;;11.43;;
60935;SDS011;46804;51.786;19.520;2023-06-24T22:31:00;18.27;;;12.07;;
60935;SDS011;46804;51.786;19.520;2023-06-24T22:35:00;18.33;;;12.23;;
60935;SDS011;46804;51.786;19.520;2023-06-24T22:39:01;20.20;;;11.68;;
60935;SDS011;46804;51.786;19.520;2023-06-24T22:43:02;17.10;;;11.60;;
60935;SDS011;46804;51.786;19.520;2023-06-24T22:47:03;17.83;;;12.27;;
60935;SDS011;46804;51.786;19.520;2023-06-24T22:51:04;19.17;;;12.57;;
60935;SDS011;46804;51.786;19.520;2023-06-24T22:55:05;18.25;;;12.10;;
60935;SDS011;46804;51.786;19.520;2023-06-24T22:59:06;17.88;;;12.07;;
60935;SDS011;46804;51.786;19.520;2023-06-24T23:03:07;19.92;;;12.38;;
60935;SDS011;46804;51.786;19.520;2023-06-24T23:07:07;15.82;;;11.52;;
60935;SDS011;46804;51.786;19.520;2023-06-24T23:11:08;14.10;;;11.00;;
60935;SDS011;46804;51.786;19.520;2023-06-24T23:15:09;16.63;;;12.00;;
60935;SDS011;46804;51.786;19.520;2023-06-24T23:19:10;16.52;;;12.20;;
60935;SDS011;46804;51.786;19.520;2023-06-24T23:23:11;15.40;;;11.48;;
60935;SDS011;46804;51.786;19.520;2023-06-24T23:27:14;16.00;;;10.82;;
60935;SDS011;46804;51.786;19.520;2023-06-24T23:31:15;15.65;;;11.82;;
60935;SDS011;46804;51.786;19.520;2023-06-24T23:35:20;16.52;;;11.05;;
60935;SDS011;46804;51.786;19.520;2023-06-24T23:39:22;13.95;;;10.48;;
60935;SDS011;46804;51.786;19.520;2023-06-24T23:43:23;16.75;;;11.15;;
60935;SDS011;46804;51.786;19.520;2023-06-24T23:47:24;15.68;;;10.73;;
60935;SDS011;46804;51.786;19.520;2023-06-24T23:51:24;14.88;;;10.50;;
60935;SDS011;46804;51.786;19.520;2023-06-24T23:55:25;14.80;;;10.48;;
60935;SDS011;46804;51.786;19.520;2023-06-24T23:59:26;15.82;;;11.02;;
